createdAt,value
2023-03-16T00:00:57.885Z,232.81
2023-03-16T00:01:57.943Z,233.32
2023-03-16T00:02:56.980Z,232.68
2023-03-16T00:03:56.932Z,233.01
2023-03-16T00:04:56.973Z,232.02
2023-03-16T00:05:57.997Z,231.75
2023-03-16T00:06:57.021Z,234.04
2023-03-16T00:07:57.150Z,232.36
2023-03-16T00:08:58.073Z,232.44
2023-03-16T00:09:58.085Z,233.34
2023-03-16T00:10:58.122Z,233.86
2023-03-16T00:11:58.112Z,233.24
2023-03-16T00:12:58.136Z,233.67
2023-03-16T00:13:58.163Z,232.47
2023-03-16T00:14:58.238Z,232.18
2023-03-16T00:15:58.257Z,232.57
2023-03-16T00:16:57.227Z,231.59
2023-03-16T00:17:58.253Z,232.95
2023-03-16T00:18:58.268Z,231.96
2023-03-16T00:19:58.302Z,231.43
2023-03-16T00:20:57.345Z,231.05
2023-03-16T00:21:58.373Z,232.14
2023-03-16T00:22:58.409Z,231.88
2023-03-16T00:23:58.429Z,231.91
2023-03-16T00:24:58.458Z,231.90
2023-03-16T00:25:58.504Z,232.15
2023-03-16T00:26:58.524Z,232.01
2023-03-16T00:27:58.551Z,231.17
2023-03-16T00:28:58.579Z,230.91
2023-03-16T00:29:58.619Z,230.76
2023-03-16T00:30:58.669Z,230.39
2023-03-16T00:31:58.691Z,231.20
2023-03-16T00:32:58.751Z,231.91
2023-03-16T00:33:58.717Z,232.63
2023-03-16T00:34:57.743Z,231.45
2023-03-16T00:35:58.791Z,231.43
2023-03-16T00:36:58.830Z,231.41
2023-03-16T00:37:58.826Z,231.53
2023-03-16T00:38:57.853Z,230.30
2023-03-16T00:39:57.895Z,229.08
2023-03-16T00:40:58.912Z,231.58
2023-03-16T00:41:57.949Z,232.17
2023-03-16T00:42:58.983Z,230.72
2023-03-16T00:43:59.025Z,230.74
2023-03-16T00:44:59.040Z,231.03
2023-03-16T00:45:59.217Z,231.62
2023-03-16T00:46:59.124Z,230.06
2023-03-16T00:47:59.136Z,230.09
2023-03-16T00:48:58.154Z,230.49
2023-03-16T00:49:58.198Z,230.83
2023-03-16T00:50:59.238Z,230.84
2023-03-16T00:51:59.282Z,230.84
2023-03-16T00:52:59.366Z,229.65
2023-03-16T00:53:59.345Z,230.18
2023-03-16T00:54:59.373Z,231.46
2023-03-16T00:55:59.404Z,230.99
2023-03-16T00:56:58.441Z,231.13
2023-03-16T00:57:59.483Z,228.99
2023-03-16T00:58:59.534Z,230.51
2023-03-16T00:59:58.537Z,227.58
2023-03-16T01:00:59.630Z,227.86
2023-03-16T01:01:59.601Z,229.04
2023-03-16T01:02:59.717Z,231.01
2023-03-16T01:03:59.666Z,230.57
2023-03-16T01:04:59.700Z,229.39
2023-03-16T01:05:59.750Z,229.72
2023-03-16T01:06:59.768Z,230.09
2023-03-16T01:07:59.811Z,230.62
2023-03-16T01:08:58.813Z,230.12
2023-03-16T01:09:59.866Z,228.96
2023-03-16T01:10:58.889Z,229.83
2023-03-16T01:11:59.934Z,229.12
2023-03-16T01:12:59.987Z,230.41
2023-03-16T01:14:00.002Z,228.84
2023-03-16T01:14:59.047Z,229.12
2023-03-16T01:16:00.122Z,229.87
2023-03-16T01:17:00.298Z,227.90
2023-03-16T01:18:00.160Z,230.68
2023-03-16T01:19:00.217Z,228.64
2023-03-16T01:19:59.250Z,229.73
2023-03-16T01:20:59.264Z,228.60
2023-03-16T01:21:59.290Z,229.18
2023-03-16T01:23:00.329Z,229.50
2023-03-16T01:23:59.359Z,229.64
2023-03-16T01:24:59.414Z,228.80
2023-03-16T01:26:00.437Z,229.48
2023-03-16T01:26:59.473Z,230.05
2023-03-16T01:28:00.506Z,229.27
2023-03-16T01:28:59.557Z,228.56
2023-03-16T01:30:00.587Z,229.39
2023-03-16T01:30:59.638Z,230.42
2023-03-16T01:32:00.668Z,228.27
2023-03-16T01:33:00.796Z,226.99
2023-03-16T01:34:00.740Z,227.79
2023-03-16T01:34:59.816Z,228.34
2023-03-16T01:36:00.878Z,227.00
2023-03-16T01:37:00.888Z,227.59
2023-03-16T01:38:00.915Z,226.15
2023-03-16T01:39:00.947Z,227.10
2023-03-16T01:40:00.979Z,227.92
2023-03-16T01:41:01.015Z,227.68
2023-03-16T01:42:01.065Z,227.28
2023-03-16T01:43:01.134Z,226.94
2023-03-16T01:44:01.126Z,227.12
2023-03-16T01:45:00.158Z,225.42
2023-03-16T01:46:01.321Z,226.61
2023-03-16T01:47:01.247Z,227.90
2023-03-16T01:48:01.310Z,227.50
2023-03-16T01:49:01.338Z,228.38
2023-03-16T01:50:00.400Z,228.77
2023-03-16T01:51:01.466Z,227.91
2023-03-16T01:52:01.534Z,227.87
2023-03-16T01:53:00.509Z,229.01
2023-03-16T01:54:01.560Z,228.70
2023-03-16T01:55:00.652Z,228.38
2023-03-16T01:56:01.652Z,227.38
2023-03-16T01:57:01.697Z,228.31
2023-03-16T01:58:01.774Z,227.23
2023-03-16T01:59:01.779Z,226.06
2023-03-16T02:00:01.881Z,227.36
2023-03-16T02:01:01.930Z,225.79
2023-03-16T02:02:01.926Z,227.05
2023-03-16T02:03:01.954Z,226.03
2023-03-16T02:04:02.050Z,224.95
2023-03-16T02:05:01.043Z,226.61
2023-03-16T02:06:02.079Z,228.03
2023-03-16T02:07:02.159Z,226.51
2023-03-16T02:08:01.157Z,226.04
2023-03-16T02:09:02.229Z,225.31
2023-03-16T02:10:02.258Z,226.03
2023-03-16T02:11:02.286Z,225.85
2023-03-16T02:12:02.336Z,226.33
2023-03-16T02:13:02.384Z,226.33
2023-03-16T02:14:02.448Z,225.55
2023-03-16T02:15:02.478Z,224.87
2023-03-16T02:16:02.612Z,225.76
2023-03-16T02:17:01.570Z,226.56
2023-03-16T02:18:02.607Z,224.22
2023-03-16T02:19:02.652Z,224.70
2023-03-16T02:20:02.694Z,225.12
2023-03-16T02:21:02.740Z,223.29
2023-03-16T02:22:02.820Z,224.50
2023-03-16T02:23:02.830Z,224.34
2023-03-16T02:24:02.863Z,225.29
2023-03-16T02:25:02.891Z,225.75
2023-03-16T02:26:02.938Z,225.09
2023-03-16T02:27:03.028Z,225.40
2023-03-16T02:28:03.054Z,224.41
2023-03-16T02:29:02.084Z,223.21
2023-03-16T02:30:03.109Z,223.90
2023-03-16T02:31:02.237Z,222.97
2023-03-16T02:32:03.194Z,223.79
2023-03-16T02:33:02.333Z,224.59
2023-03-16T02:34:02.275Z,222.73
2023-03-16T02:35:03.388Z,222.96
2023-03-16T02:36:03.459Z,223.69
2023-03-16T02:37:03.405Z,223.91
2023-03-16T02:38:03.439Z,223.33
2023-03-16T02:39:02.511Z,223.13
2023-03-16T02:40:02.568Z,223.69
2023-03-16T02:41:02.577Z,222.71
2023-03-16T02:42:03.634Z,222.74
2023-03-16T02:43:03.675Z,224.27
2023-03-16T02:44:03.754Z,223.24
2023-03-16T02:45:03.811Z,222.43
2023-03-16T02:46:03.912Z,223.19
2023-03-16T02:47:03.886Z,223.00
2023-03-16T02:48:03.932Z,223.24
2023-03-16T02:49:03.989Z,223.30
2023-03-16T02:50:04.025Z,222.10
2023-03-16T02:51:04.114Z,222.51
2023-03-16T02:52:04.116Z,222.31
2023-03-16T02:53:03.158Z,223.57
2023-03-16T02:54:04.221Z,222.91
2023-03-16T02:55:04.281Z,223.00
2023-03-16T02:56:03.364Z,221.05
2023-03-16T02:57:04.339Z,223.20
2023-03-16T02:58:04.396Z,224.09
2023-03-16T02:59:04.464Z,222.05
2023-03-16T03:00:04.479Z,221.70
2023-03-16T03:01:03.523Z,221.79
2023-03-16T03:02:04.720Z,221.34
2023-03-16T03:03:03.680Z,221.74
2023-03-16T03:04:04.687Z,222.51
2023-03-16T03:05:04.705Z,223.49
2023-03-16T03:06:03.779Z,223.81
2023-03-16T03:07:04.939Z,222.23
2023-03-16T03:08:04.902Z,223.60
2023-03-16T03:09:04.907Z,221.87
2023-03-16T03:10:04.927Z,221.43
2023-03-16T03:11:05.003Z,221.22
2023-03-16T03:12:05.046Z,222.54
2023-03-16T03:13:05.091Z,221.75
2023-03-16T03:14:05.148Z,221.10
2023-03-16T03:15:05.164Z,221.86
2023-03-16T03:16:05.362Z,222.59
2023-03-16T03:17:05.274Z,221.69
2023-03-16T03:18:05.369Z,222.81
2023-03-16T03:19:05.450Z,222.60
2023-03-16T03:20:05.476Z,222.40
2023-03-16T03:21:05.495Z,220.63
2023-03-16T03:22:05.535Z,219.84
2023-03-16T03:23:04.597Z,221.19
2023-03-16T03:24:05.679Z,220.92
2023-03-16T03:25:05.730Z,219.86
2023-03-16T03:26:05.760Z,220.14
2023-03-16T03:27:04.840Z,223.16
2023-03-16T03:28:04.965Z,219.79
2023-03-16T03:29:05.918Z,219.65
2023-03-16T03:30:05.951Z,219.38
2023-03-16T03:31:06.007Z,219.92
2023-03-16T03:32:06.080Z,221.05
2023-03-16T03:33:05.243Z,221.41
2023-03-16T03:34:06.183Z,219.98
2023-03-16T03:35:06.227Z,219.14
2023-03-16T03:36:06.411Z,217.59
2023-03-16T03:37:06.324Z,218.41
2023-03-16T03:38:06.383Z,218.30
2023-03-16T03:39:06.455Z,218.31
2023-03-16T03:40:06.486Z,218.69
2023-03-16T03:41:05.563Z,218.79
2023-03-16T03:42:06.649Z,218.11
2023-03-16T03:43:06.663Z,218.36
2023-03-16T03:44:06.731Z,218.20
2023-03-16T03:45:06.772Z,218.56
2023-03-16T03:46:05.991Z,216.64
2023-03-16T03:47:07.028Z,218.45
2023-03-16T03:48:06.953Z,218.63
2023-03-16T03:49:07.021Z,218.72
2023-03-16T03:50:07.052Z,219.94
2023-03-16T03:51:07.101Z,217.49
2023-03-16T03:52:06.214Z,216.84
2023-03-16T03:53:07.223Z,218.17
2023-03-16T03:54:07.304Z,217.20
2023-03-16T03:55:07.333Z,219.17
2023-03-16T03:56:06.394Z,218.71
2023-03-16T03:57:07.492Z,218.56
2023-03-16T03:58:06.549Z,218.60
2023-03-16T03:59:07.615Z,219.38
2023-03-16T04:00:06.650Z,217.47
2023-03-16T04:01:07.696Z,215.28
2023-03-16T04:02:07.918Z,216.54
2023-03-16T04:03:08.298Z,217.89
2023-03-16T04:04:06.896Z,217.89
2023-03-16T04:05:07.996Z,217.63
2023-03-16T04:06:07.026Z,216.61
2023-03-16T04:07:08.082Z,216.71
2023-03-16T04:08:08.223Z,217.76
2023-03-16T04:09:08.210Z,219.54
2023-03-16T04:10:08.254Z,217.28
2023-03-16T04:11:08.299Z,216.16
2023-03-16T04:12:08.356Z,215.79
2023-03-16T04:13:08.540Z,217.76
2023-03-16T04:14:07.484Z,216.59
2023-03-16T04:15:08.541Z,218.53
2023-03-16T04:16:08.577Z,218.58
2023-03-16T04:17:08.645Z,217.36
2023-03-16T04:18:07.705Z,217.17
2023-03-16T04:19:08.742Z,216.45
2023-03-16T04:20:08.808Z,215.81
2023-03-16T04:21:08.855Z,217.20
2023-03-16T04:22:08.917Z,214.67
2023-03-16T04:23:08.999Z,216.48
2023-03-16T04:24:08.023Z,216.01
2023-03-16T04:25:11.374Z,217.06
2023-03-16T04:26:09.075Z,218.13
2023-03-16T04:27:09.072Z,216.91
2023-03-16T04:28:08.058Z,216.41
2023-03-16T04:29:09.072Z,217.68
2023-03-16T04:30:09.043Z,216.32
2023-03-16T04:31:09.146Z,215.59
2023-03-16T04:32:08.032Z,217.07
2023-03-16T04:33:08.170Z,215.51
2023-03-16T04:34:08.028Z,216.65
2023-03-16T04:35:09.022Z,220.18
2023-03-16T04:36:09.109Z,216.31
2023-03-16T04:37:08.995Z,216.70
2023-03-16T04:38:09.001Z,217.93
2023-03-16T04:39:07.985Z,214.34
2023-03-16T04:40:10.454Z,215.24
2023-03-16T04:41:08.986Z,217.97
2023-03-16T04:42:08.958Z,217.70
2023-03-16T04:43:07.984Z,215.95
2023-03-16T04:44:08.952Z,218.75
2023-03-16T04:45:08.968Z,215.28
2023-03-16T04:46:08.993Z,218.62
2023-03-16T04:47:08.940Z,216.72
2023-03-16T04:48:08.938Z,212.82
2023-03-16T04:49:08.913Z,215.35
2023-03-16T04:50:08.922Z,215.02
2023-03-16T04:51:08.934Z,212.24
2023-03-16T04:52:08.902Z,215.94
2023-03-16T04:53:08.884Z,214.09
2023-03-16T04:54:08.882Z,213.64
2023-03-16T04:55:08.878Z,214.91
2023-03-16T04:56:08.886Z,213.02
2023-03-16T04:57:07.885Z,214.38
2023-03-16T04:58:08.863Z,216.74
2023-03-16T04:59:08.854Z,214.40
2023-03-16T05:00:08.898Z,212.62
2023-03-16T05:01:08.920Z,212.93
2023-03-16T05:02:08.839Z,214.51
2023-03-16T05:03:07.850Z,213.02
2023-03-16T05:04:11.571Z,211.91
2023-03-16T05:05:08.008Z,212.07
2023-03-16T05:06:07.895Z,212.39
2023-03-16T05:07:08.880Z,212.34
2023-03-16T05:08:08.885Z,213.29
2023-03-16T05:09:07.878Z,211.11
2023-03-16T05:10:08.902Z,211.62
2023-03-16T05:11:08.949Z,212.41
2023-03-16T05:12:09.014Z,212.96
2023-03-16T05:13:09.070Z,212.33
2023-03-16T05:14:09.146Z,213.17
2023-03-16T05:15:08.211Z,211.96
2023-03-16T05:16:09.350Z,212.03
2023-03-16T05:17:09.370Z,211.40
2023-03-16T05:18:09.404Z,214.46
2023-03-16T05:19:08.468Z,211.79
2023-03-16T05:20:08.548Z,209.99
2023-03-16T05:21:09.587Z,208.73
2023-03-16T05:22:08.667Z,211.49
2023-03-16T05:23:08.736Z,213.11
2023-03-16T05:24:09.770Z,210.04
2023-03-16T05:25:09.819Z,210.39
2023-03-16T05:26:09.884Z,210.90
2023-03-16T05:27:08.930Z,210.03
2023-03-16T05:28:09.972Z,211.04
2023-03-16T05:29:10.038Z,210.66
2023-03-16T05:30:10.086Z,209.91
2023-03-16T05:31:10.217Z,209.42
2023-03-16T05:32:09.218Z,207.11
2023-03-16T05:33:10.386Z,210.61
2023-03-16T05:34:10.309Z,212.46
2023-03-16T05:35:09.372Z,210.16
2023-03-16T05:36:10.443Z,212.18
2023-03-16T05:37:09.486Z,209.32
2023-03-16T05:38:10.512Z,210.13
2023-03-16T05:39:10.588Z,211.05
2023-03-16T05:40:09.635Z,209.49
2023-03-16T05:41:10.662Z,211.04
2023-03-16T05:42:10.746Z,208.40
2023-03-16T05:43:10.795Z,207.74
2023-03-16T05:44:10.861Z,210.65
2023-03-16T05:45:10.944Z,209.05
2023-03-16T05:46:11.011Z,206.82
2023-03-16T05:47:09.982Z,208.49
2023-03-16T05:48:11.038Z,206.31
2023-03-16T05:49:10.101Z,208.67
2023-03-16T05:50:11.162Z,209.15
2023-03-16T05:51:11.185Z,208.58
2023-03-16T05:52:11.260Z,209.76
2023-03-16T05:53:11.324Z,208.64
2023-03-16T05:54:11.367Z,210.24
2023-03-16T05:55:11.442Z,209.63
2023-03-16T05:56:11.481Z,210.02
2023-03-16T05:57:10.541Z,208.66
2023-03-16T05:58:11.588Z,207.15
2023-03-16T05:59:11.652Z,209.64
2023-03-16T06:00:11.696Z,209.50
2023-03-16T06:01:10.747Z,209.92
2023-03-16T06:02:11.792Z,209.47
2023-03-16T06:03:11.904Z,206.22
2023-03-16T06:04:11.970Z,209.80
2023-03-16T06:05:11.901Z,210.04
2023-03-16T06:08:11.956Z,208.87
2023-03-16T06:09:11.994Z,209.34
2023-03-16T06:10:12.050Z,208.34
2023-03-16T06:17:11.322Z,208.04
2023-03-16T06:18:12.354Z,206.82
2023-03-16T06:19:12.382Z,208.82
2023-03-16T06:20:12.428Z,206.79
2023-03-16T06:26:11.666Z,213.55
2023-03-16T06:28:12.734Z,216.01
2023-03-16T06:29:12.801Z,215.50
2023-03-16T06:31:12.977Z,217.45
2023-03-16T06:32:12.980Z,218.78
2023-03-16T06:33:13.024Z,221.82
2023-03-16T06:34:13.085Z,213.55
2023-03-16T06:35:13.152Z,210.80
2023-03-16T06:36:13.250Z,212.44
2023-03-16T06:37:13.315Z,219.49
2023-03-16T06:38:13.324Z,220.43
2023-03-16T06:39:13.377Z,221.82
2023-03-16T06:40:13.498Z,221.88
2023-03-16T06:41:12.497Z,220.46
2023-03-16T06:42:13.562Z,218.22
2023-03-16T06:43:13.614Z,215.38
2023-03-16T06:44:13.682Z,215.26
2023-03-16T06:45:13.742Z,213.06
2023-03-16T06:49:13.888Z,212.85
2023-03-16T06:53:14.046Z,212.40
2023-03-16T07:02:13.353Z,214.68
2023-03-16T07:03:14.105Z,217.38
2023-03-16T07:05:13.210Z,212.92
2023-03-16T07:07:14.330Z,219.11
2023-03-16T07:08:14.388Z,220.14
2023-03-16T07:10:14.471Z,222.00
2023-03-16T07:11:14.497Z,224.09
2023-03-16T07:12:14.547Z,227.39
2023-03-16T07:13:14.573Z,230.69
2023-03-16T07:15:14.630Z,235.61
2023-03-16T07:17:13.688Z,238.92
2023-03-16T07:18:13.721Z,245.26
2023-03-16T07:19:13.735Z,243.90
2023-03-16T07:21:14.778Z,242.15
2023-03-16T07:22:14.782Z,242.96
2023-03-16T07:23:14.791Z,246.13
2023-03-16T07:25:14.816Z,245.52
2023-03-16T07:30:14.819Z,248.49
2023-03-16T07:31:13.811Z,250.00
2023-03-16T07:32:13.827Z,246.57
2023-03-16T07:33:14.825Z,246.11
2023-03-16T07:34:14.867Z,247.68
2023-03-16T07:35:14.877Z,247.34
2023-03-16T07:36:14.998Z,245.36
2023-03-16T07:37:13.939Z,247.14
2023-03-16T07:38:14.941Z,250.00
2023-03-16T07:39:14.952Z,247.28
2023-03-16T07:40:13.999Z,249.76
2023-03-16T07:43:15.015Z,249.35
2023-03-16T07:44:15.077Z,248.06
2023-03-16T07:46:15.255Z,247.62
2023-03-16T07:52:16.329Z,234.72
2023-03-16T07:55:15.537Z,241.54
2023-03-16T10:43:18.573Z,150.57
2023-03-16T10:45:18.616Z,144.26
2023-03-16T10:46:18.782Z,146.87
2023-03-16T10:47:18.667Z,146.06
2023-03-16T10:48:18.936Z,146.73
2023-03-16T10:49:18.673Z,146.38
2023-03-16T10:50:18.732Z,144.11
2023-03-16T10:51:18.764Z,142.34
2023-03-16T10:53:18.918Z,132.00
2023-03-16T10:54:18.867Z,132.31
2023-03-16T10:55:18.878Z,130.35
2023-03-16T10:57:18.937Z,131.21
2023-03-16T10:58:18.959Z,132.24
2023-03-16T10:59:18.997Z,133.61
2023-03-16T11:00:19.092Z,135.26
2023-03-16T11:03:19.212Z,124.46
2023-03-16T11:04:19.337Z,129.85
2023-03-16T11:05:19.367Z,133.35
2023-03-16T11:08:19.480Z,132.51
2023-03-16T11:09:18.557Z,135.65
2023-03-16T11:10:19.646Z,130.94
2023-03-16T11:11:19.688Z,132.20
2023-03-16T11:12:19.689Z,132.47
2023-03-16T11:13:19.730Z,131.21
2023-03-16T11:14:19.768Z,129.63
2023-03-16T11:15:25.779Z,132.26
2023-03-16T11:16:19.833Z,132.41
2023-03-16T11:17:19.804Z,129.55
2023-03-16T11:18:18.827Z,133.09
2023-03-16T11:19:19.793Z,131.88
2023-03-16T11:20:19.785Z,131.25
2023-03-16T11:23:19.807Z,132.23
2023-03-16T11:36:18.773Z,132.70
2023-03-16T11:38:18.655Z,136.61
2023-03-16T11:39:19.656Z,137.94
2023-03-16T11:45:18.871Z,130.96
2023-03-16T11:47:18.893Z,136.29
2023-03-16T11:56:18.992Z,151.73
2023-03-16T12:02:19.131Z,152.92
2023-03-16T12:03:20.102Z,152.47
2023-03-16T12:05:20.064Z,153.42
2023-03-16T12:06:22.897Z,152.43
2023-03-16T12:07:20.071Z,152.57
2023-03-16T12:15:18.985Z,161.84
2023-03-16T12:21:19.956Z,161.25
2023-03-16T12:22:20.060Z,160.24
2023-03-16T12:23:18.936Z,159.18
2023-03-16T12:24:19.940Z,160.62
2023-03-16T12:26:19.937Z,156.34
2023-03-16T12:27:19.905Z,156.83
2023-03-16T12:28:19.901Z,158.29
2023-03-16T12:29:19.924Z,158.03
2023-03-16T12:30:19.883Z,157.22
2023-03-16T12:31:19.987Z,157.91
2023-03-16T12:32:19.897Z,157.56
2023-03-16T12:35:19.836Z,155.24
2023-03-16T12:36:19.871Z,152.39
2023-03-16T12:37:19.855Z,154.57
2023-03-16T12:39:19.937Z,156.04
2023-03-16T12:40:19.896Z,155.97
2023-03-16T12:44:20.080Z,155.28
2023-03-16T12:45:20.113Z,157.06
2023-03-16T12:46:19.136Z,157.30
2023-03-16T12:47:20.157Z,155.35
2023-03-16T12:48:19.184Z,156.32
2023-03-16T12:49:20.309Z,157.02
2023-03-16T12:50:20.276Z,155.01
2023-03-16T12:51:20.287Z,153.45
2023-03-16T12:52:20.338Z,152.84
2023-03-16T12:54:20.471Z,153.53
2023-03-16T12:55:19.432Z,153.94
2023-03-16T12:56:20.463Z,155.58
2023-03-16T12:59:19.535Z,155.82
2023-03-16T13:00:20.586Z,155.31
2023-03-16T13:01:20.724Z,156.76
2023-03-16T13:02:19.659Z,156.64
2023-03-16T13:03:20.697Z,155.83
2023-03-16T13:04:20.923Z,157.14
2023-03-16T13:06:20.872Z,157.08
2023-03-16T13:07:20.881Z,158.53
2023-03-16T13:08:20.879Z,157.68
2023-03-16T13:09:20.934Z,159.13
2023-03-16T13:10:21.062Z,156.21
2023-03-16T13:11:21.024Z,156.21
2023-03-16T13:12:21.057Z,154.54
2023-03-16T13:14:21.139Z,153.41
2023-03-16T13:15:20.155Z,154.29
2023-03-16T13:17:21.331Z,153.01
2023-03-16T13:18:21.252Z,152.20
2023-03-16T13:20:30.265Z,151.26
2023-03-16T13:21:21.317Z,151.27
2023-03-16T13:22:21.281Z,150.08
2023-03-16T13:23:21.296Z,151.11
2023-03-16T13:24:20.410Z,151.67
2023-03-16T13:25:21.286Z,153.50
2023-03-16T13:26:21.262Z,152.60
2023-03-16T13:27:21.252Z,153.93
2023-03-16T13:28:21.244Z,154.05
2023-03-16T13:30:21.359Z,154.86
2023-03-16T13:31:20.291Z,154.77
2023-03-16T13:32:21.225Z,153.60
2023-03-16T13:33:21.257Z,154.76
2023-03-16T13:34:20.289Z,155.63
2023-03-16T13:35:20.188Z,154.94
2023-03-16T13:36:21.182Z,155.57
2023-03-16T13:37:20.163Z,154.95
2023-03-16T13:38:21.199Z,155.19
2023-03-16T13:39:21.219Z,156.14
2023-03-16T13:40:21.168Z,155.87
2023-03-16T13:41:21.194Z,156.66
2023-03-16T13:42:21.148Z,157.48
2023-03-16T13:43:21.180Z,157.54
2023-03-16T13:44:21.202Z,158.07
2023-03-16T13:45:21.140Z,159.39
2023-03-16T13:46:21.226Z,158.46
2023-03-16T13:47:21.102Z,158.40
2023-03-16T13:48:21.103Z,159.09
2023-03-16T13:49:21.121Z,158.48
2023-03-16T13:50:21.076Z,160.06
2023-03-16T13:51:21.073Z,160.32
2023-03-16T13:52:20.053Z,161.12
2023-03-16T13:53:21.087Z,161.33
2023-03-16T13:54:20.087Z,161.33
2023-03-16T13:55:21.124Z,160.95
2023-03-16T13:56:20.158Z,160.86
2023-03-16T13:57:21.222Z,161.87
2023-03-16T13:58:20.226Z,162.64
2023-03-16T13:59:21.289Z,161.94
2023-03-16T14:00:20.431Z,163.38
2023-03-16T14:01:21.459Z,163.66
2023-03-16T14:02:21.664Z,163.91
2023-03-16T14:03:21.475Z,163.17
2023-03-16T14:04:21.549Z,164.09
2023-03-16T14:05:20.598Z,164.19
2023-03-16T14:06:20.640Z,163.98
2023-03-16T14:07:20.678Z,164.25
2023-03-16T14:08:21.728Z,164.40
2023-03-16T14:09:21.790Z,165.15
2023-03-16T14:10:21.817Z,165.75
2023-03-16T14:11:21.876Z,164.81
2023-03-16T14:12:21.936Z,166.67
2023-03-16T14:13:21.994Z,166.86
2023-03-16T14:14:22.069Z,164.77
2023-03-16T14:15:21.083Z,166.25
2023-03-16T14:16:22.247Z,165.94
2023-03-16T14:17:22.229Z,165.70
2023-03-16T14:18:22.289Z,165.54
2023-03-16T14:19:22.349Z,166.69
2023-03-16T14:20:21.401Z,166.07
2023-03-16T14:21:21.573Z,166.94
2023-03-16T14:22:22.530Z,166.62
2023-03-16T14:23:22.562Z,167.64
2023-03-16T14:24:21.625Z,166.97
2023-03-16T14:26:22.755Z,167.06
2023-03-16T14:28:22.859Z,168.53
2023-03-16T14:29:22.941Z,169.14
2023-03-16T14:31:23.141Z,167.88
2023-03-16T14:32:23.120Z,168.13
2023-03-16T14:33:23.179Z,168.68
2023-03-16T14:34:23.244Z,168.08
2023-03-16T14:35:23.328Z,168.45
2023-03-16T14:36:23.375Z,169.39
2023-03-16T14:39:22.554Z,168.23
2023-03-16T14:40:22.598Z,168.24
2023-03-16T14:41:22.674Z,167.52
2023-03-16T14:43:23.786Z,170.62
2023-03-16T14:44:22.861Z,170.04
2023-03-16T14:45:23.917Z,169.88
2023-03-16T14:47:24.076Z,169.85
2023-03-16T14:49:24.177Z,169.63
2023-03-16T14:53:23.469Z,170.29
2023-03-16T15:06:24.169Z,171.52
2023-03-16T15:07:24.244Z,171.46
2023-03-16T15:18:24.782Z,172.48
2023-03-16T15:19:24.859Z,172.59
2023-03-16T15:23:24.985Z,172.58
2023-03-16T15:27:25.200Z,172.67
2023-03-16T15:40:25.706Z,172.89
2023-03-16T15:42:25.666Z,174.17
2023-03-16T15:48:25.701Z,173.88
2023-03-16T15:49:27.029Z,174.12
2023-03-16T15:53:30.605Z,175.88
2023-03-16T16:03:25.651Z,176.10
2023-03-16T16:15:25.547Z,176.77
2023-03-16T16:24:25.497Z,178.69
2023-03-16T16:28:25.501Z,177.59
2023-03-16T16:30:26.484Z,176.85
2023-03-16T16:31:26.534Z,175.91
2023-03-16T16:32:26.576Z,177.22
2023-03-16T16:33:26.473Z,177.40
2023-03-16T16:34:26.486Z,177.34
2023-03-16T16:35:26.588Z,179.41
2023-03-16T16:36:26.481Z,180.12
2023-03-16T16:37:26.490Z,178.36
2023-03-16T16:38:25.485Z,177.91
2023-03-16T16:39:26.506Z,178.95
2023-03-16T16:40:26.527Z,177.28
2023-03-16T16:41:26.514Z,177.99
2023-03-16T16:42:27.596Z,176.42
2023-03-16T16:43:25.543Z,177.41
2023-03-16T16:44:26.563Z,178.63
2023-03-16T16:45:25.606Z,178.02
2023-03-16T16:46:26.656Z,177.27
2023-03-16T16:47:26.618Z,177.68
2023-03-16T16:48:25.610Z,177.81
2023-03-16T16:49:25.601Z,177.93
2023-03-16T16:50:26.602Z,177.43
2023-03-16T16:51:26.607Z,178.71
2023-03-16T16:52:26.656Z,179.21
2023-03-16T16:53:25.639Z,178.31
2023-03-16T16:54:26.635Z,177.62
2023-03-16T16:55:26.851Z,178.21
2023-03-16T16:56:26.614Z,176.24
2023-03-16T16:57:26.619Z,177.52
2023-03-16T16:58:25.612Z,177.13
2023-03-16T16:59:25.613Z,177.12
2023-03-16T17:00:25.624Z,177.73
2023-03-16T17:01:26.689Z,175.89
2023-03-16T17:02:25.590Z,176.31
2023-03-16T17:03:26.596Z,176.60
2023-03-16T17:04:26.644Z,176.14
2023-03-16T17:05:25.599Z,176.16
2023-03-16T17:06:25.587Z,176.05
2023-03-16T17:07:26.586Z,176.01
2023-03-16T17:08:26.598Z,176.18
2023-03-16T17:09:26.626Z,176.78
2023-03-16T17:10:26.646Z,176.92
2023-03-16T17:11:26.646Z,175.94
2023-03-16T17:12:26.675Z,176.23
2023-03-16T17:13:26.725Z,176.39
2023-03-16T17:14:26.697Z,177.22
2023-03-16T17:15:26.797Z,177.13
2023-03-16T17:16:26.780Z,177.50
2023-03-16T17:17:25.750Z,175.00
2023-03-16T17:18:26.726Z,176.21
2023-03-16T17:19:26.718Z,176.76
2023-03-16T17:20:26.718Z,179.52
2023-03-16T17:21:26.709Z,178.33
2023-03-16T17:22:26.710Z,177.53
2023-03-16T17:23:26.706Z,176.42
2023-03-16T17:24:26.690Z,176.23
2023-03-16T17:25:26.744Z,177.74
2023-03-16T17:26:26.691Z,177.87
2023-03-16T17:27:26.692Z,176.51
2023-03-16T17:28:26.692Z,176.78
2023-03-16T17:29:26.717Z,177.28
2023-03-16T17:30:26.736Z,178.94
2023-03-16T17:31:25.797Z,177.58
2023-03-16T17:32:26.876Z,176.74
2023-03-16T17:33:25.757Z,178.19
2023-03-16T17:34:26.731Z,177.54
2023-03-16T17:35:26.785Z,177.35
2023-03-16T17:36:26.751Z,178.65
2023-03-16T17:37:26.763Z,177.16
2023-03-16T17:38:26.856Z,177.71
2023-03-16T17:39:26.762Z,177.80
2023-03-16T17:40:26.762Z,175.89
2023-03-16T17:41:26.786Z,178.15
2023-03-16T17:42:26.755Z,178.35
2023-03-16T17:43:26.867Z,175.31
2023-03-16T17:44:26.801Z,176.48
2023-03-16T17:45:27.165Z,178.60
2023-03-16T17:46:25.794Z,178.31
2023-03-16T17:47:26.769Z,177.18
2023-03-16T17:48:25.777Z,176.95
2023-03-16T17:49:26.819Z,178.12
2023-03-16T17:50:26.929Z,179.20
2023-03-16T17:51:26.783Z,179.39
2023-03-16T17:52:26.836Z,180.03
2023-03-16T17:53:26.785Z,178.47
2023-03-16T17:54:26.797Z,179.30
2023-03-16T17:55:25.820Z,177.91
2023-03-16T17:56:26.814Z,179.98
2023-03-16T17:57:26.809Z,179.64
2023-03-16T17:58:26.823Z,180.51
2023-03-16T17:59:26.823Z,180.62
2023-03-16T18:00:26.947Z,179.18
2023-03-16T18:01:25.854Z,180.17
2023-03-16T18:02:26.852Z,179.65
2023-03-16T18:03:28.634Z,179.99
2023-03-16T18:04:26.851Z,180.05
2023-03-16T18:05:26.882Z,180.25
2023-03-16T18:06:26.830Z,180.17
2023-03-16T18:07:26.812Z,179.42
2023-03-16T18:08:26.814Z,180.24
2023-03-16T18:09:26.814Z,179.82
2023-03-16T18:10:26.859Z,179.60
2023-03-16T18:11:26.807Z,181.11
2023-03-16T18:12:26.785Z,179.97
2023-03-16T18:13:25.780Z,181.71
2023-03-16T18:14:26.764Z,179.17
2023-03-16T18:15:26.791Z,179.18
2023-03-16T18:16:26.847Z,179.67
2023-03-16T18:17:26.760Z,178.96
2023-03-16T18:18:26.758Z,178.44
2023-03-16T18:19:25.883Z,178.72
2023-03-16T18:20:26.749Z,178.16
2023-03-16T18:21:26.759Z,177.97
2023-03-16T18:22:26.719Z,177.03
2023-03-16T18:23:26.704Z,177.14
2023-03-16T18:24:26.754Z,178.40
2023-03-16T18:25:25.699Z,178.71
2023-03-16T18:26:26.698Z,178.21
2023-03-16T18:27:26.700Z,179.12
2023-03-16T18:28:25.688Z,178.19
2023-03-16T18:29:26.679Z,177.77
2023-03-16T18:30:26.852Z,179.23
2023-03-16T18:31:26.716Z,178.30
2023-03-16T18:32:26.703Z,178.60
2023-03-16T18:33:26.647Z,178.18
2023-03-16T18:34:25.647Z,178.90
2023-03-16T18:35:26.682Z,178.91
2023-03-16T18:36:26.625Z,179.68
2023-03-16T18:37:26.646Z,178.46
2023-03-16T18:38:26.613Z,179.19
2023-03-16T18:39:25.612Z,179.48
2023-03-16T18:40:25.614Z,179.28
2023-03-16T18:41:26.615Z,178.26
2023-03-16T18:42:25.616Z,180.16
2023-03-16T18:43:27.332Z,180.29
2023-03-16T18:44:26.662Z,178.95
2023-03-16T18:45:26.762Z,179.12
2023-03-16T18:46:26.806Z,177.34
2023-03-16T18:47:25.753Z,178.65